Eddystone — ZIQT3 — position and weather

sailwx.info

Track history (hours):
 
Tides and Currents Weather Stations Pressure Air Temp Water Temp Dewpoint Dewpoint Depression Visibility Wind Speed Wind Dir Waves Ship Positions

Eddystone

Last reported at 2017-Sep-06 15:20 UTC. Time now 2017-Sep-19 17:18 UTC.
Position N 54°23' E 018°39'.
Warning: this ship's position is 13 days out of date.

Length 193 m; draft 5.2 m.

Type: Cargo ship. MMSI: 235507000.

Date/timePositionNaut miles runAvg speedWind from/ knotsBaromVisibWave heightAir tempDewpointWater temp
2017-Sep-06 15:20N 54°23' E 018°39'0 0.0
2017-Sep-06 14:59N 54°23' E 018°39'0 0.0
2017-Sep-06 14:29N 54°23' E 018°39'0 0.0
2017-Sep-06 13:59N 54°23' E 018°39'0 0.0
2017-Sep-06 13:29N 54°23' E 018°39'0 0.0
2017-Sep-06 12:59N 54°23' E 018°39'0 0.0
2017-Sep-06 12:29N 54°23' E 018°39'0 0.0
2017-Sep-06 11:59N 54°23' E 018°39'0 0.0
2017-Sep-06 11:29N 54°23' E 018°39'0 0.0
2017-Sep-06 10:56N 54°23' E 018°39'0 0.0
2017-Sep-06 10:29N 54°23' E 018°39'0 0.0
2017-Sep-06 09:59N 54°23' E 018°39'0 0.0
2017-Sep-06 09:29N 54°23' E 018°39'0 0.0
2017-Sep-06 08:59N 54°23' E 018°39'0 0.0
2017-Sep-06 08:29N 54°23' E 018°39'0 0.0
2017-Sep-06 07:59N 54°23' E 018°39'0 0.0
2017-Sep-06 07:29N 54°23' E 018°39'0 0.0
2017-Sep-06 06:59N 54°23' E 018°39'0 0.0
2017-Sep-06 06:29N 54°23' E 018°39'0 0.0
2017-Sep-06 05:59N 54°23' E 018°39'0 0.0
2017-Sep-06 05:30N 54°23' E 018°39'0 0.9
2017-Sep-06 05:00N 54°23' E 018°40'2 3.5
2017-Sep-06 04:30N 54°25' E 018°40'3 5.7
2017-Sep-06 04:01N 54°27' E 018°41'612.9
2017-Sep-06 03:30N 54°32' E 018°48'613.0
2017-Sep-06 03:01N 54°38' E 018°55'713.2
2017-Sep-06 02:31N 54°44' E 018°59'611.6
2017-Sep-06 02:01N 54°49' E 018°54'713.0
2017-Sep-06 01:30N 54°53' E 018°45'612.2
2017-Sep-06 01:00N 54°55' E 018°35'612.8
2017-Sep-06 00:30N 54°57' E 018°24'612.3
2017-Sep-06 00:00N 54°58' E 018°14'10112.9
2017-Sep-05 16:07N 54°46' E 015°19'213.3
2017-Sep-05 15:58N 54°45' E 015°16'613.4
2017-Sep-05 15:30N 54°43' E 015°06'713.1
2017-Sep-05 15:00N 54°40' E 014°55'813.2
2017-Sep-05 14:25N 54°38' E 014°43'612.7
2017-Sep-05 13:55N 54°36' E 014°32'512.7
2017-Sep-05 13:30N 54°36' E 014°23'713.5
2017-Sep-05 12:58N 54°38' E 014°11'816.8
2017-Sep-05 12:30N 54°43' E 014°01'816.7
2017-Sep-05 12:00N 54°49' E 013°50'816.9
2017-Sep-05 11:30N 54°54' E 013°38'917.1
2017-Sep-05 11:00N 54°59' E 013°25'917.0
2017-Sep-05 10:27N 55°05' E 013°13'817.2
2017-Sep-05 10:00N 55°10' E 013°03'916.8
2017-Sep-05 09:30N 55°15' E 012°51'816.7
2017-Sep-05 09:01N 55°18' E 012°38'816.7
2017-Sep-05 08:30N 55°26' E 012°38'815.6
2017-Sep-05 08:00N 55°33' E 012°42'714.0
2017-Sep-05 07:30N 55°40' E 012°41'815.7
2017-Sep-05 07:00N 55°48' E 012°42'917.9
2017-Sep-05 06:30N 55°57' E 012°37'816.2
2017-Sep-05 06:00N 56°05' E 012°36'815.8
2017-Sep-05 05:30N 56°09' E 012°24'612.8
2017-Sep-05 05:00N 56°13' E 012°15'4911.3
2017-Sep-05 00:40N 56°59' E 011°43'211.9
2017-Sep-05 00:28N 57°01' E 011°41'711.7
2017-Sep-04 23:55N 57°07' E 011°37'511.4
2017-Sep-04 23:29N 57°12' E 011°34'611.3
2017-Sep-04 23:00N 57°17' E 011°30'611.8
2017-Sep-04 22:30N 57°22' E 011°27'611.9
2017-Sep-04 22:00N 57°28' E 011°23'611.7
2017-Sep-04 21:29N 57°32' E 011°15'611.7
2017-Sep-04 21:00N 57°36' E 011°07'611.3
2017-Sep-04 20:29N 57°40' E 010°59'611.8
2017-Sep-04 19:59N 57°44' E 010°51'611.7
2017-Sep-04 19:30N 57°48' E 010°43'611.4
2017-Sep-04 19:00N 57°50' E 010°34'611.7
2017-Sep-04 18:30N 57°50' E 010°23'13610.6
2017-Sep-04 05:45N 56°24' E 007°10'311.3
2017-Sep-04 05:29N 56°21' E 007°07'511.3
2017-Sep-04 05:00N 56°17' E 007°02'611.3
2017-Sep-04 04:29N 56°12' E 006°56'611.4
2017-Sep-04 03:59N 56°07' E 006°51'31111.5
2017-Sep-03 00:55N 51°38' E 002°26'614.0
2017-Sep-03 00:30N 51°34' E 002°20'714.2
2017-Sep-03 00:00N 51°28' E 002°15'714.1
2017-Sep-02 23:31N 51°21' E 002°09'714.3
2017-Sep-02 23:00N 51°15' E 002°04'714.7
2017-Sep-02 22:31N 51°11' E 001°54'714.9
2017-Sep-02 22:00N 51°07' E 001°44'815.5
2017-Sep-02 21:30N 51°02' E 001°35'815.1
2017-Sep-02 21:01N 50°57' E 001°26'714.6
2017-Sep-02 20:30N 50°50' E 001°23'814.1
2017-Sep-02 19:58N 50°43' E 001°19'814.0
2017-Sep-02 19:24N 50°38' E 001°09'714.1
2017-Sep-02 18:53N 50°33' E 001°00'613.8
2017-Sep-02 18:28N 50°31' E 000°52'714.1
2017-Sep-02 17:59N 50°29' E 000°42'814.2
2017-Sep-02 17:25N 50°27' E 000°30'614.2
2017-Sep-02 17:00N 50°25' E 000°21'714.1
2017-Sep-02 16:30N 50°23' E 000°10'713.8
2017-Sep-02 16:00N 50°22' W 000°00'713.3
2017-Sep-02 15:30N 50°22' W 000°10'713.1
2017-Sep-02 15:00N 50°24' W 000°20'812.8
2017-Sep-02 14:24N 50°26' W 000°32'512.5
2017-Sep-02 13:59N 50°29' W 000°39'612.5
2017-Sep-02 13:30N 50°32' W 000°48'612.4
2017-Sep-02 13:00N 50°35' W 000°56'612.6
2017-Sep-02 12:30N 50°38' W 001°04'0 0.2
2017-Sep-02 11:59N 50°38' W 001°05'0 0.1
2017-Sep-02 11:29N 50°38' W 001°04'0 0.0
2017-Sep-02 10:59N 50°38' W 001°04'0 0.0
2017-Sep-02 10:29N 50°38' W 001°04'0 0.0
2017-Sep-02 09:59N 50°38' W 001°04'0 0.0
2017-Sep-02 09:29N 50°38' W 001°04'0 0.1
2017-Sep-02 08:59N 50°38' W 001°04'0 0.1
2017-Sep-02 08:29N 50°38' W 001°04'0 0.1
2017-Sep-02 07:59N 50°38' W 001°04'0 0.1
2017-Sep-02 07:29N 50°38' W 001°04'0 0.2
2017-Sep-02 06:59N 50°38' W 001°04'0 0.0
2017-Sep-02 06:29N 50°38' W 001°04'0 0.0
2017-Sep-02 05:59N 50°38' W 001°04'0 0.0
2017-Sep-02 05:29N 50°38' W 001°04'0 0.0
2017-Sep-02 04:59N 50°38' W 001°04'0 0.0
2017-Sep-02 04:29N 50°38' W 001°04'0 0.0
2017-Sep-02 03:59N 50°38' W 001°04'0 0.0
2017-Sep-02 03:29N 50°38' W 001°04'0 0.1
2017-Sep-02 02:59N 50°38' W 001°04'0 0.1
2017-Sep-02 02:29N 50°38' W 001°04'0 0.1
2017-Sep-02 01:59N 50°38' W 001°04'0 0.0
2017-Sep-02 01:29N 50°38' W 001°04'0 0.0
2017-Sep-02 00:59N 50°38' W 001°04'0 0.1
2017-Sep-02 00:29N 50°38' W 001°04'0 0.1
2017-Sep-01 23:59N 50°38' W 001°04'0 0.0
2017-Sep-01 23:29N 50°38' W 001°04'0 0.0
2017-Sep-01 22:59N 50°38' W 001°04'0 0.0
2017-Sep-01 22:29N 50°38' W 001°04'0 0.0
2017-Sep-01 21:59N 50°38' W 001°04'0 0.0
2017-Sep-01 21:29N 50°38' W 001°04'0 0.0
2017-Sep-01 20:59N 50°38' W 001°04'0 0.0
2017-Sep-01 20:29N 50°38' W 001°04'0 0.1
2017-Sep-01 19:59N 50°38' W 001°04'0 0.1
2017-Sep-01 19:29N 50°38' W 001°04'0 0.1
2017-Sep-01 18:59N 50°38' W 001°04'0 0.1
2017-Sep-01 18:29N 50°38' W 001°04'0 0.0
2017-Sep-01 17:59N 50°38' W 001°04'0 0.1
2017-Sep-01 17:29N 50°38' W 001°04'0 0.0
2017-Sep-01 16:59N 50°38' W 001°04'0 0.0
2017-Sep-01 16:29N 50°38' W 001°04'0 0.0
2017-Sep-01 15:59N 50°38' W 001°04'0 0.0
2017-Sep-01 15:29N 50°38' W 001°04'0 0.0
2017-Sep-01 14:59N 50°38' W 001°04'0 0.0
2017-Sep-01 14:20N 50°38' W 001°04'0 0.0
2017-Sep-01 13:53N 50°38' W 001°04'0 0.1
2017-Sep-01 13:29N 50°38' W 001°04'0 0.2
2017-Sep-01 12:59N 50°38' W 001°04'0 0.1
2017-Sep-01 12:29N 50°38' W 001°04'0 0.0
2017-Sep-01 11:59N 50°38' W 001°05'0 0.1
2017-Sep-01 11:29N 50°38' W 001°04'0 0.0
2017-Sep-01 10:59N 50°38' W 001°04'0 0.0
2017-Sep-01 10:29N 50°38' W 001°04'0 0.0
2017-Sep-01 09:59N 50°38' W 001°04'0 0.0
2017-Sep-01 09:29N 50°38' W 001°04'0 0.0
2017-Sep-01 08:59N 50°38' W 001°04'0 0.0
2017-Sep-01 08:29N 50°38' W 001°04'0 0.0
2017-Sep-01 07:59N 50°38' W 001°04'0 0.1
2017-Sep-01 07:29N 50°38' W 001°04'0 0.1
2017-Sep-01 06:59N 50°38' W 001°04'0 0.0
2017-Sep-01 06:29N 50°38' W 001°04'0 0.1
2017-Sep-01 05:59N 50°38' W 001°04'0 0.1
2017-Sep-01 05:29N 50°38' W 001°04'0 0.0
2017-Sep-01 04:59N 50°38' W 001°04'0 0.0
2017-Sep-01 04:29N 50°38' W 001°04'0 0.0
2017-Sep-01 03:59N 50°38' W 001°04'0 0.0
2017-Sep-01 03:29N 50°38' W 001°04'0 0.0
2017-Sep-01 02:59N 50°38' W 001°04'0 0.0
2017-Sep-01 02:29N 50°38' W 001°04'0 0.0
2017-Sep-01 01:59N 50°38' W 001°04'0 0.0
2017-Sep-01 01:29N 50°38' W 001°04'0 0.1
2017-Sep-01 00:59N 50°38' W 001°04'0 0.0
2017-Sep-01 00:29N 50°38' W 001°04'0 0.1
2017-Aug-31 23:59N 50°38' W 001°04'0 0.1
2017-Aug-31 23:29N 50°38' W 001°04'0 0.0
2017-Aug-31 22:59N 50°38' W 001°04'0 0.0
2017-Aug-31 22:29N 50°38' W 001°04'0 0.0
2017-Aug-31 21:59N 50°38' W 001°04'0 0.0
2017-Aug-31 21:29N 50°38' W 001°04'0 0.0
2017-Aug-31 20:59N 50°38' W 001°04'0 0.1
2017-Aug-31 20:29N 50°38' W 001°04'0 0.2
2017-Aug-31 19:58N 50°38' W 001°04'0 0.2
2017-Aug-31 19:29N 50°38' W 001°04'0 0.0
2017-Aug-31 18:59N 50°38' W 001°04'0 0.0
2017-Aug-31 18:29N 50°38' W 001°04'0 0.0
2017-Aug-31 17:59N 50°38' W 001°04'0 0.1
2017-Aug-31 17:29N 50°38' W 001°04'0 0.0
2017-Aug-31 16:59N 50°38' W 001°04'0 0.1
2017-Aug-31 16:29N 50°38' W 001°04'0 0.0
2017-Aug-31 15:59N 50°38' W 001°04'0 0.0
2017-Aug-31 15:29N 50°38' W 001°04'0 0.0
2017-Aug-31 14:59N 50°38' W 001°04'0 0.1
2017-Aug-31 14:29N 50°38' W 001°04'0 0.1
2017-Aug-31 13:59N 50°38' W 001°04'0 0.1
2017-Aug-31 13:26N 50°38' W 001°04'0 0.0
2017-Aug-31 12:58N 50°38' W 001°04'0 0.1
2017-Aug-31 12:28N 50°38' W 001°04'0 0.0
2017-Aug-31 11:58N 50°38' W 001°04'0 0.0
2017-Aug-31 11:29N 50°38' W 001°04'0 0.1
2017-Aug-31 10:58N 50°38' W 001°04'0 0.1
2017-Aug-31 10:28N 50°38' W 001°04'0 0.3
2017-Aug-31 09:58N 50°38' W 001°04'0 0.1
2017-Aug-31 09:28N 50°38' W 001°04'0 0.0
2017-Aug-31 08:59N 50°38' W 001°04'0 0.0
2017-Aug-31 08:28N 50°38' W 001°04'0 0.1
2017-Aug-31 07:58N 50°38' W 001°05'0 0.0
2017-Aug-31 07:28N 50°38' W 001°05'0 0.1
2017-Aug-31 06:59N 50°38' W 001°05'0 0.0
2017-Aug-31 06:28N 50°38' W 001°05'0 0.1
2017-Aug-31 05:58N 50°38' W 001°04'0 0.1
2017-Aug-31 05:28N 50°38' W 001°04'0 0.2
2017-Aug-31 04:58N 50°38' W 001°04'0 0.0
2017-Aug-31 04:28N 50°38' W 001°04'0 0.0
2017-Aug-31 03:58N 50°38' W 001°04'0 0.0
2017-Aug-31 03:29N 50°38' W 001°04'0 0.0
2017-Aug-31 02:58N 50°38' W 001°04'0 0.0
2017-Aug-31 02:28N 50°38' W 001°04'0 0.0
2017-Aug-31 01:58N 50°38' W 001°04'0 0.0
2017-Aug-31 01:28N 50°38' W 001°04'0 0.0
2017-Aug-31 00:58N 50°38' W 001°04'0 0.0
2017-Aug-31 00:28N 50°38' W 001°04'0 0.0
2017-Aug-30 23:58N 50°38' W 001°04'0 0.0
2017-Aug-30 23:28N 50°38' W 001°04'0 0.0
2017-Aug-30 22:59N 50°38' W 001°04'0 0.1
2017-Aug-30 22:28N 50°38' W 001°04'0 0.1
2017-Aug-30 21:58N 50°38' W 001°04'0 0.1
2017-Aug-30 21:28N 50°38' W 001°04'0 0.0
2017-Aug-30 20:58N 50°38' W 001°04'0 0.0
2017-Aug-30 20:28N 50°38' W 001°05'0 0.0
2017-Aug-30 19:58N 50°38' W 001°05'0 0.0
2017-Aug-30 19:28N 50°38' W 001°05'0 0.0
2017-Aug-30 18:58N 50°38' W 001°05'0 0.0
2017-Aug-30 18:28N 50°38' W 001°05'0 0.1
2017-Aug-30 17:58N 50°38' W 001°04'0 0.1
2017-Aug-30 17:28N 50°38' W 001°04'0 0.0
2017-Aug-30 16:58N 50°38' W 001°04'0 0.1
2017-Aug-30 16:28N 50°38' W 001°04'0 0.1
2017-Aug-30 15:58N 50°38' W 001°04'0 0.1
2017-Aug-30 15:28N 50°38' W 001°04'0 0.1
2017-Aug-30 14:58N 50°38' W 001°04'0 0.0
2017-Aug-30 14:28N 50°38' W 001°04'0 0.0
2017-Aug-30 13:58N 50°38' W 001°04'0 0.0
2017-Aug-30 13:28N 50°38' W 001°04'0 0.0
2017-Aug-30 12:58N 50°38' W 001°04'0 0.0
2017-Aug-30 12:28N 50°38' W 001°04'0 0.1
2017-Aug-30 11:58N 50°38' W 001°04'0 0.0
2017-Aug-30 11:28N 50°38' W 001°04'0 0.1
2017-Aug-30 10:58N 50°38' W 001°04'0 0.1
2017-Aug-30 10:28N 50°38' W 001°04'0 0.0
2017-Aug-30 09:58N 50°38' W 001°04'0 0.0
2017-Aug-30 09:28N 50°38' W 001°04'0 0.1
2017-Aug-30 08:58N 50°38' W 001°04'0 0.0
2017-Aug-30 08:28N 50°38' W 001°04'0 0.0
2017-Aug-30 07:58N 50°38' W 001°04'0 0.0
2017-Aug-30 07:28N 50°38' W 001°04'0 0.0
2017-Aug-30 06:58N 50°38' W 001°04'0 0.0
2017-Aug-30 06:28N 50°38' W 001°05'0 0.0
2017-Aug-30 05:58N 50°38' W 001°04'0 0.0
2017-Aug-30 05:28N 50°38' W 001°04'0 0.0
2017-Aug-30 04:58N 50°38' W 001°04'0 0.1
2017-Aug-30 04:28N 50°38' W 001°04'0 0.0
2017-Aug-30 03:58N 50°38' W 001°04'0 0.1
2017-Aug-30 03:28N 50°38' W 001°04'0 0.1
2017-Aug-30 02:58N 50°38' W 001°04'0 0.0
2017-Aug-30 02:28N 50°38' W 001°04'0 0.1
2017-Aug-30 01:55N 50°38' W 001°04'0 0.1
2017-Aug-30 01:28N 50°38' W 001°04'0 0.0
2017-Aug-30 00:58N 50°38' W 001°04'0 0.0
2017-Aug-30 00:28N 50°38' W 001°04'0 0.0
2017-Aug-29 23:58N 50°38' W 001°04'0 0.0
2017-Aug-29 23:28N 50°38' W 001°04'0 0.0
2017-Aug-29 22:58N 50°38' W 001°04'0 0.1
2017-Aug-29 22:28N 50°38' W 001°04'0 0.1
2017-Aug-29 21:58N 50°38' W 001°04'0 0.0
2017-Aug-29 21:28N 50°38' W 001°04'0 0.0
2017-Aug-29 20:58N 50°38' W 001°04'0 0.1
2017-Aug-29 20:28N 50°38' W 001°04'0 0.0
2017-Aug-29 19:58N 50°38' W 001°04'0 0.1
2017-Aug-29 19:28N 50°38' W 001°04'0 0.0
2017-Aug-29 18:58N 50°38' W 001°04'0 0.0
2017-Aug-29 18:28N 50°38' W 001°04'0 0.0
2017-Aug-29 17:58N 50°38' W 001°04'0 0.1
2017-Aug-29 17:28N 50°38' W 001°04'0 0.0
2017-Aug-29 16:58N 50°38' W 001°04'0 0.1
2017-Aug-29 16:28N 50°38' W 001°04'0 0.2
2017-Aug-29 15:58N 50°38' W 001°04'0 0.3
2017-Aug-29 15:28N 50°38' W 001°04'0 0.1
2017-Aug-29 14:58N 50°38' W 001°04'0 0.0
2017-Aug-29 14:28N 50°38' W 001°04'0 0.0
2017-Aug-29 13:58N 50°38' W 001°04'0 0.0
2017-Aug-29 13:28N 50°38' W 001°04'0 0.0
2017-Aug-29 12:52N 50°38' W 001°04'0 0.0
2017-Aug-29 12:28N 50°38' W 001°04'0 0.0
2017-Aug-29 11:58N 50°38' W 001°04'0 0.0
2017-Aug-29 11:28N 50°38' W 001°04'0 0.0
2017-Aug-29 10:58N 50°38' W 001°04'0 0.0
2017-Aug-29 10:28N 50°38' W 001°04'0 0.0
2017-Aug-29 09:58N 50°38' W 001°04'0 0.4
2017-Aug-29 09:30N 50°38' W 001°04'5 9.2
2017-Aug-29 09:00N 50°42' W 001°01'1019.8
2017-Aug-29 08:30N 50°46' W 001°15'612.7
2017-Aug-29 08:01N 50°51' W 001°21'4 6.6
2017-Aug-29 07:29N 50°54' W 001°25'0 0.0
2017-Aug-29 06:59N 50°54' W 001°25'0 0.0
2017-Aug-29 06:29N 50°54' W 001°25'0 0.0
2017-Aug-29 05:59N 50°54' W 001°25'0 0.0
2017-Aug-29 05:29N 50°54' W 001°25'0 0.0
2017-Aug-29 04:59N 50°54' W 001°25'0 0.0
2017-Aug-29 04:28N 50°54' W 001°25'0 0.0
2017-Aug-29 03:59N 50°54' W 001°25'0 0.0
2017-Aug-29 03:28N 50°54' W 001°25'0 0.0
2017-Aug-29 02:59N 50°54' W 001°25'0 0.0
2017-Aug-29 02:28N 50°54' W 001°25'0 0.0
2017-Aug-29 01:55N 50°54' W 001°25'0 0.0
2017-Aug-29 01:28N 50°54' W 001°25'0 0.0
2017-Aug-29 00:58N 50°54' W 001°25'0 0.0
2017-Aug-29 00:28N 50°54' W 001°25'0 0.0
2017-Aug-28 23:58N 50°54' W 001°25'0 0.0
2017-Aug-28 23:29N 50°54' W 001°25'0 0.0
2017-Aug-28 22:58N 50°54' W 001°25'0 0.0
2017-Aug-28 22:28N 50°54' W 001°25'0 0.0
2017-Aug-28 21:58N 50°54' W 001°25'0 0.0
2017-Aug-28 21:28N 50°54' W 001°25'0 0.0
2017-Aug-28 20:58N 50°54' W 001°25'0 0.0
2017-Aug-28 20:28N 50°54' W 001°25'0 0.0
2017-Aug-28 19:58N 50°54' W 001°25'0 0.0
2017-Aug-28 19:28N 50°54' W 001°25'0 0.0
2017-Aug-28 18:58N 50°54' W 001°25'0 0.0
2017-Aug-28 18:28N 50°54' W 001°25'0 0.0
2017-Aug-28 17:58N 50°54' W 001°25'0 0.0
2017-Aug-28 17:28N 50°54' W 001°25'0 0.0
2017-Aug-28 16:58N 50°54' W 001°25'0 0.0
2017-Aug-28 16:28N 50°54' W 001°25'0 0.0
2017-Aug-28 15:59N 50°54' W 001°25'0 0.0
2017-Aug-28 15:28N 50°54' W 001°25'0 0.0
2017-Aug-28 14:58N 50°54' W 001°25'0 0.0
2017-Aug-28 14:28N 50°54' W 001°25'0 0.0
2017-Aug-28 13:58N 50°54' W 001°25'0 0.0
2017-Aug-28 13:28N 50°54' W 001°25'0 0.0
2017-Aug-28 12:58N 50°54' W 001°25'0 0.0
2017-Aug-28 12:28N 50°54' W 001°25'0 0.0
2017-Aug-28 11:58N 50°54' W 001°25'0 0.0
2017-Aug-28 11:28N 50°54' W 001°25'0 0.0
2017-Aug-28 10:58N 50°54' W 001°25'0 0.0
2017-Aug-28 10:28N 50°54' W 001°25'0 0.0
2017-Aug-28 09:58N 50°54' W 001°25'0 0.0
2017-Aug-28 09:28N 50°54' W 001°25'0 0.0
2017-Aug-28 08:55N 50°54' W 001°25'0 0.0
2017-Aug-28 08:28N 50°54' W 001°25'0 0.0
2017-Aug-28 07:58N 50°54' W 001°25'0 0.0
2017-Aug-28 07:28N 50°54' W 001°25'0 0.0
2017-Aug-28 06:55N 50°54' W 001°25'0 0.0
2017-Aug-28 06:28N 50°54' W 001°25'0 0.0
2017-Aug-28 05:58N 50°54' W 001°25'0 0.0
2017-Aug-28 05:28N 50°54' W 001°25'0 0.0
2017-Aug-28 04:58N 50°54' W 001°25'0 0.0
2017-Aug-28 04:28N 50°54' W 001°25'0 0.0
2017-Aug-28 03:58N 50°54' W 001°25'0 0.0
2017-Aug-28 03:28N 50°54' W 001°25'0 0.0
2017-Aug-28 02:58N 50°54' W 001°25'0 0.0
2017-Aug-28 02:28N 50°54' W 001°25'0 0.0
2017-Aug-28 01:58N 50°54' W 001°25'0 0.0
2017-Aug-28 01:28N 50°54' W 001°25'0 0.0
2017-Aug-28 00:58N 50°54' W 001°25'0 0.0
2017-Aug-28 00:28N 50°54' W 001°25'0 0.0
2017-Aug-27 23:58N 50°54' W 001°25'0 0.0
2017-Aug-27 23:28N 50°54' W 001°25'0 0.0
2017-Aug-27 22:58N 50°54' W 001°25'0 0.0
2017-Aug-27 22:28N 50°54' W 001°25'0 0.0
2017-Aug-27 21:58N 50°54' W 001°25'0 0.0
2017-Aug-27 21:28N 50°54' W 001°25'0 0.0
2017-Aug-27 20:58N 50°54' W 001°25'0 0.0
2017-Aug-27 20:28N 50°54' W 001°25'0 0.0
2017-Aug-27 19:58N 50°54' W 001°25'0 0.0
2017-Aug-27 19:28N 50°54' W 001°25'0 0.0
2017-Aug-27 18:58N 50°54' W 001°25'0 0.0
2017-Aug-27 18:28N 50°54' W 001°25'0 0.0
2017-Aug-27 17:58N 50°54' W 001°25'0 0.0
2017-Aug-27 17:28N 50°54' W 001°25'0 0.0
2017-Aug-27 16:58N 50°54' W 001°25'0 0.0
2017-Aug-27 16:28N 50°54' W 001°25'0 0.0
2017-Aug-27 15:58N 50°54' W 001°25'  
Track history (hours):
 
Tides and Currents Weather Stations Pressure Air Temp Water Temp Dewpoint Dewpoint Depression Visibility Wind Speed Wind Dir Waves Ship Positions

Eddystone

Last reported at 2017-Sep-06 15:20 UTC. Time now 2017-Sep-19 17:18 UTC.
Position N 54°23' E 018°39'.
Warning: this ship's position is 13 days out of date.

Length 193 m; draft 5.2 m.

Type: Cargo ship. MMSI: 235507000.

Date/timePositionNaut miles runAvg speedWind from/ knotsBaromVisibWave heightAir tempDewpointWater temp
2017-Sep-06 15:20N 54°23' E 018°39'0 0.0
2017-Sep-06 14:59N 54°23' E 018°39'0 0.0
2017-Sep-06 14:29N 54°23' E 018°39'0 0.0
2017-Sep-06 13:59N 54°23' E 018°39'0 0.0
2017-Sep-06 13:29N 54°23' E 018°39'0 0.0
2017-Sep-06 12:59N 54°23' E 018°39'0 0.0
2017-Sep-06 12:29N 54°23' E 018°39'0 0.0
2017-Sep-06 11:59N 54°23' E 018°39'0 0.0
2017-Sep-06 11:29N 54°23' E 018°39'0 0.0
2017-Sep-06 10:56N 54°23' E 018°39'0 0.0
2017-Sep-06 10:29N 54°23' E 018°39'0 0.0
2017-Sep-06 09:59N 54°23' E 018°39'0 0.0
2017-Sep-06 09:29N 54°23' E 018°39'0 0.0
2017-Sep-06 08:59N 54°23' E 018°39'0 0.0
2017-Sep-06 08:29N 54°23' E 018°39'0 0.0
2017-Sep-06 07:59N 54°23' E 018°39'0 0.0
2017-Sep-06 07:29N 54°23' E 018°39'0 0.0
2017-Sep-06 06:59N 54°23' E 018°39'0 0.0
2017-Sep-06 06:29N 54°23' E 018°39'0 0.0
2017-Sep-06 05:59N 54°23' E 018°39'0 0.0
2017-Sep-06 05:30N 54°23' E 018°39'0 0.9
2017-Sep-06 05:00N 54°23' E 018°40'2 3.5
2017-Sep-06 04:30N 54°25' E 018°40'3 5.7
2017-Sep-06 04:01N 54°27' E 018°41'612.9
2017-Sep-06 03:30N 54°32' E 018°48'613.0
2017-Sep-06 03:01N 54°38' E 018°55'713.2
2017-Sep-06 02:31N 54°44' E 018°59'611.6
2017-Sep-06 02:01N 54°49' E 018°54'713.0
2017-Sep-06 01:30N 54°53' E 018°45'612.2
2017-Sep-06 01:00N 54°55' E 018°35'612.8
2017-Sep-06 00:30N 54°57' E 018°24'612.3
2017-Sep-06 00:00N 54°58' E 018°14'10112.9
2017-Sep-05 16:07N 54°46' E 015°19'213.3
2017-Sep-05 15:58N 54°45' E 015°16'613.4
2017-Sep-05 15:30N 54°43' E 015°06'713.1
2017-Sep-05 15:00N 54°40' E 014°55'813.2
2017-Sep-05 14:25N 54°38' E 014°43'612.7
2017-Sep-05 13:55N 54°36' E 014°32'512.7
2017-Sep-05 13:30N 54°36' E 014°23'713.5
2017-Sep-05 12:58N 54°38' E 014°11'816.8
2017-Sep-05 12:30N 54°43' E 014°01'816.7
2017-Sep-05 12:00N 54°49' E 013°50'816.9
2017-Sep-05 11:30N 54°54' E 013°38'917.1
2017-Sep-05 11:00N 54°59' E 013°25'917.0
2017-Sep-05 10:27N 55°05' E 013°13'817.2
2017-Sep-05 10:00N 55°10' E 013°03'916.8
2017-Sep-05 09:30N 55°15' E 012°51'816.7
2017-Sep-05 09:01N 55°18' E 012°38'816.7
2017-Sep-05 08:30N 55°26' E 012°38'815.6
2017-Sep-05 08:00N 55°33' E 012°42'714.0
2017-Sep-05 07:30N 55°40' E 012°41'815.7
2017-Sep-05 07:00N 55°48' E 012°42'917.9
2017-Sep-05 06:30N 55°57' E 012°37'816.2
2017-Sep-05 06:00N 56°05' E 012°36'815.8
2017-Sep-05 05:30N 56°09' E 012°24'612.8
2017-Sep-05 05:00N 56°13' E 012°15'4911.3
2017-Sep-05 00:40N 56°59' E 011°43'211.9
2017-Sep-05 00:28N 57°01' E 011°41'711.7
2017-Sep-04 23:55N 57°07' E 011°37'511.4
2017-Sep-04 23:29N 57°12' E 011°34'611.3
2017-Sep-04 23:00N 57°17' E 011°30'611.8
2017-Sep-04 22:30N 57°22' E 011°27'611.9
2017-Sep-04 22:00N 57°28' E 011°23'611.7
2017-Sep-04 21:29N 57°32' E 011°15'611.7
2017-Sep-04 21:00N 57°36' E 011°07'611.3
2017-Sep-04 20:29N 57°40' E 010°59'611.8
2017-Sep-04 19:59N 57°44' E 010°51'611.7
2017-Sep-04 19:30N 57°48' E 010°43'611.4
2017-Sep-04 19:00N 57°50' E 010°34'611.7
2017-Sep-04 18:30N 57°50' E 010°23'13610.6
2017-Sep-04 05:45N 56°24' E 007°10'311.3
2017-Sep-04 05:29N 56°21' E 007°07'511.3
2017-Sep-04 05:00N 56°17' E 007°02'611.3
2017-Sep-04 04:29N 56°12' E 006°56'611.4
2017-Sep-04 03:59N 56°07' E 006°51'31111.5
2017-Sep-03 00:55N 51°38' E 002°26'614.0
2017-Sep-03 00:30N 51°34' E 002°20'714.2
2017-Sep-03 00:00N 51°28' E 002°15'714.1
2017-Sep-02 23:31N 51°21' E 002°09'714.3
2017-Sep-02 23:00N 51°15' E 002°04'714.7
2017-Sep-02 22:31N 51°11' E 001°54'714.9
2017-Sep-02 22:00N 51°07' E 001°44'815.5
2017-Sep-02 21:30N 51°02' E 001°35'815.1
2017-Sep-02 21:01N 50°57' E 001°26'714.6
2017-Sep-02 20:30N 50°50' E 001°23'814.1
2017-Sep-02 19:58N 50°43' E 001°19'814.0
2017-Sep-02 19:24N 50°38' E 001°09'714.1
2017-Sep-02 18:53N 50°33' E 001°00'613.8
2017-Sep-02 18:28N 50°31' E 000°52'714.1
2017-Sep-02 17:59N 50°29' E 000°42'814.2
2017-Sep-02 17:25N 50°27' E 000°30'614.2
2017-Sep-02 17:00N 50°25' E 000°21'714.1
2017-Sep-02 16:30N 50°23' E 000°10'713.8
2017-Sep-02 16:00N 50°22' W 000°00'713.3
2017-Sep-02 15:30N 50°22' W 000°10'713.1
2017-Sep-02 15:00N 50°24' W 000°20'812.8
2017-Sep-02 14:24N 50°26' W 000°32'512.5
2017-Sep-02 13:59N 50°29' W 000°39'612.5
2017-Sep-02 13:30N 50°32' W 000°48'612.4
2017-Sep-02 13:00N 50°35' W 000°56'612.6
2017-Sep-02 12:30N 50°38' W 001°04'0 0.2
2017-Sep-02 11:59N 50°38' W 001°05'0 0.1
2017-Sep-02 11:29N 50°38' W 001°04'0 0.0
2017-Sep-02 10:59N 50°38' W 001°04'0 0.0
2017-Sep-02 10:29N 50°38' W 001°04'0 0.0
2017-Sep-02 09:59N 50°38' W 001°04'0 0.0
2017-Sep-02 09:29N 50°38' W 001°04'0 0.1
2017-Sep-02 08:59N 50°38' W 001°04'0 0.1
2017-Sep-02 08:29N 50°38' W 001°04'0 0.1
2017-Sep-02 07:59N 50°38' W 001°04'0 0.1
2017-Sep-02 07:29N 50°38' W 001°04'0 0.2
2017-Sep-02 06:59N 50°38' W 001°04'0 0.0
2017-Sep-02 06:29N 50°38' W 001°04'0 0.0
2017-Sep-02 05:59N 50°38' W 001°04'0 0.0
2017-Sep-02 05:29N 50°38' W 001°04'0 0.0
2017-Sep-02 04:59N 50°38' W 001°04'0 0.0
2017-Sep-02 04:29N 50°38' W 001°04'0 0.0
2017-Sep-02 03:59N 50°38' W 001°04'0 0.0
2017-Sep-02 03:29N 50°38' W 001°04'0 0.1
2017-Sep-02 02:59N 50°38' W 001°04'0 0.1
2017-Sep-02 02:29N 50°38' W 001°04'0 0.1
2017-Sep-02 01:59N 50°38' W 001°04'0 0.0
2017-Sep-02 01:29N 50°38' W 001°04'0 0.0
2017-Sep-02 00:59N 50°38' W 001°04'0 0.1
2017-Sep-02 00:29N 50°38' W 001°04'0 0.1
2017-Sep-01 23:59N 50°38' W 001°04'0 0.0
2017-Sep-01 23:29N 50°38' W 001°04'0 0.0
2017-Sep-01 22:59N 50°38' W 001°04'0 0.0
2017-Sep-01 22:29N 50°38' W 001°04'0 0.0
2017-Sep-01 21:59N 50°38' W 001°04'0 0.0
2017-Sep-01 21:29N 50°38' W 001°04'0 0.0
2017-Sep-01 20:59N 50°38' W 001°04'0 0.0
2017-Sep-01 20:29N 50°38' W 001°04'0 0.1
2017-Sep-01 19:59N 50°38' W 001°04'0 0.1
2017-Sep-01 19:29N 50°38' W 001°04'0 0.1
2017-Sep-01 18:59N 50°38' W 001°04'0 0.1
2017-Sep-01 18:29N 50°38' W 001°04'0 0.0
2017-Sep-01 17:59N 50°38' W 001°04'0 0.1
2017-Sep-01 17:29N 50°38' W 001°04'0 0.0
2017-Sep-01 16:59N 50°38' W 001°04'0 0.0
2017-Sep-01 16:29N 50°38' W 001°04'0 0.0
2017-Sep-01 15:59N 50°38' W 001°04'0 0.0
2017-Sep-01 15:29N 50°38' W 001°04'0 0.0
2017-Sep-01 14:59N 50°38' W 001°04'0 0.0
2017-Sep-01 14:20N 50°38' W 001°04'0 0.0
2017-Sep-01 13:53N 50°38' W 001°04'0 0.1
2017-Sep-01 13:29N 50°38' W 001°04'0 0.2
2017-Sep-01 12:59N 50°38' W 001°04'0 0.1
2017-Sep-01 12:29N 50°38' W 001°04'0 0.0
2017-Sep-01 11:59N 50°38' W 001°05'0 0.1
2017-Sep-01 11:29N 50°38' W 001°04'0 0.0
2017-Sep-01 10:59N 50°38' W 001°04'0 0.0
2017-Sep-01 10:29N 50°38' W 001°04'0 0.0
2017-Sep-01 09:59N 50°38' W 001°04'0 0.0
2017-Sep-01 09:29N 50°38' W 001°04'0 0.0
2017-Sep-01 08:59N 50°38' W 001°04'0 0.0
2017-Sep-01 08:29N 50°38' W 001°04'0 0.0
2017-Sep-01 07:59N 50°38' W 001°04'0 0.1
2017-Sep-01 07:29N 50°38' W 001°04'0 0.1
2017-Sep-01 06:59N 50°38' W 001°04'0 0.0
2017-Sep-01 06:29N 50°38' W 001°04'0 0.1
2017-Sep-01 05:59N 50°38' W 001°04'0 0.1
2017-Sep-01 05:29N 50°38' W 001°04'0 0.0
2017-Sep-01 04:59N 50°38' W 001°04'0 0.0
2017-Sep-01 04:29N 50°38' W 001°04'0 0.0
2017-Sep-01 03:59N 50°38' W 001°04'0 0.0
2017-Sep-01 03:29N 50°38' W 001°04'0 0.0
2017-Sep-01 02:59N 50°38' W 001°04'0 0.0
2017-Sep-01 02:29N 50°38' W 001°04'0 0.0
2017-Sep-01 01:59N 50°38' W 001°04'0 0.0
2017-Sep-01 01:29N 50°38' W 001°04'0 0.1
2017-Sep-01 00:59N 50°38' W 001°04'0 0.0
2017-Sep-01 00:29N 50°38' W 001°04'0 0.1
2017-Aug-31 23:59N 50°38' W 001°04'0 0.1
2017-Aug-31 23:29N 50°38' W 001°04'0 0.0
2017-Aug-31 22:59N 50°38' W 001°04'0 0.0
2017-Aug-31 22:29N 50°38' W 001°04'0 0.0
2017-Aug-31 21:59N 50°38' W 001°04'0 0.0
2017-Aug-31 21:29N 50°38' W 001°04'0 0.0
2017-Aug-31 20:59N 50°38' W 001°04'0 0.1
2017-Aug-31 20:29N 50°38' W 001°04'0 0.2
2017-Aug-31 19:58N 50°38' W 001°04'0 0.2
2017-Aug-31 19:29N 50°38' W 001°04'0 0.0
2017-Aug-31 18:59N 50°38' W 001°04'0 0.0
2017-Aug-31 18:29N 50°38' W 001°04'0 0.0
2017-Aug-31 17:59N 50°38' W 001°04'0 0.1
2017-Aug-31 17:29N 50°38' W 001°04'0 0.0
2017-Aug-31 16:59N 50°38' W 001°04'0 0.1
2017-Aug-31 16:29N 50°38' W 001°04'0 0.0
2017-Aug-31 15:59N 50°38' W 001°04'0 0.0
2017-Aug-31 15:29N 50°38' W 001°04'0 0.0
2017-Aug-31 14:59N 50°38' W 001°04'0 0.1
2017-Aug-31 14:29N 50°38' W 001°04'0 0.1
2017-Aug-31 13:59N 50°38' W 001°04'0 0.1
2017-Aug-31 13:26N 50°38' W 001°04'0 0.0
2017-Aug-31 12:58N 50°38' W 001°04'0 0.1
2017-Aug-31 12:28N 50°38' W 001°04'0 0.0
2017-Aug-31 11:58N 50°38' W 001°04'0 0.0
2017-Aug-31 11:29N 50°38' W 001°04'0 0.1
2017-Aug-31 10:58N 50°38' W 001°04'0 0.1
2017-Aug-31 10:28N 50°38' W 001°04'0 0.3
2017-Aug-31 09:58N 50°38' W 001°04'0 0.1
2017-Aug-31 09:28N 50°38' W 001°04'0 0.0
2017-Aug-31 08:59N 50°38' W 001°04'0 0.0
2017-Aug-31 08:28N 50°38' W 001°04'0 0.1
2017-Aug-31 07:58N 50°38' W 001°05'0 0.0
2017-Aug-31 07:28N 50°38' W 001°05'0 0.1
2017-Aug-31 06:59N 50°38' W 001°05'0 0.0
2017-Aug-31 06:28N 50°38' W 001°05'0 0.1
2017-Aug-31 05:58N 50°38' W 001°04'0 0.1
2017-Aug-31 05:28N 50°38' W 001°04'0 0.2
2017-Aug-31 04:58N 50°38' W 001°04'0 0.0
2017-Aug-31 04:28N 50°38' W 001°04'0 0.0
2017-Aug-31 03:58N 50°38' W 001°04'0 0.0
2017-Aug-31 03:29N 50°38' W 001°04'0 0.0
2017-Aug-31 02:58N 50°38' W 001°04'0 0.0
2017-Aug-31 02:28N 50°38' W 001°04'0 0.0
2017-Aug-31 01:58N 50°38' W 001°04'0 0.0
2017-Aug-31 01:28N 50°38' W 001°04'0 0.0
2017-Aug-31 00:58N 50°38' W 001°04'0 0.0
2017-Aug-31 00:28N 50°38' W 001°04'0 0.0
2017-Aug-30 23:58N 50°38' W 001°04'0 0.0
2017-Aug-30 23:28N 50°38' W 001°04'0 0.0
2017-Aug-30 22:59N 50°38' W 001°04'0 0.1
2017-Aug-30 22:28N 50°38' W 001°04'0 0.1
2017-Aug-30 21:58N 50°38' W 001°04'0 0.1
2017-Aug-30 21:28N 50°38' W 001°04'0 0.0
2017-Aug-30 20:58N 50°38' W 001°04'0 0.0
2017-Aug-30 20:28N 50°38' W 001°05'0 0.0
2017-Aug-30 19:58N 50°38' W 001°05'0 0.0
2017-Aug-30 19:28N 50°38' W 001°05'0 0.0
2017-Aug-30 18:58N 50°38' W 001°05'0 0.0
2017-Aug-30 18:28N 50°38' W 001°05'0 0.1
2017-Aug-30 17:58N 50°38' W 001°04'0 0.1
2017-Aug-30 17:28N 50°38' W 001°04'0 0.0
2017-Aug-30 16:58N 50°38' W 001°04'0 0.1
2017-Aug-30 16:28N 50°38' W 001°04'0 0.1
2017-Aug-30 15:58N 50°38' W 001°04'0 0.1
2017-Aug-30 15:28N 50°38' W 001°04'0 0.1
2017-Aug-30 14:58N 50°38' W 001°04'0 0.0
2017-Aug-30 14:28N 50°38' W 001°04'0 0.0
2017-Aug-30 13:58N 50°38' W 001°04'0 0.0
2017-Aug-30 13:28N 50°38' W 001°04'0 0.0
2017-Aug-30 12:58N 50°38' W 001°04'0 0.0
2017-Aug-30 12:28N 50°38' W 001°04'0 0.1
2017-Aug-30 11:58N 50°38' W 001°04'0 0.0
2017-Aug-30 11:28N 50°38' W 001°04'0 0.1
2017-Aug-30 10:58N 50°38' W 001°04'0 0.1
2017-Aug-30 10:28N 50°38' W 001°04'0 0.0
2017-Aug-30 09:58N 50°38' W 001°04'0 0.0
2017-Aug-30 09:28N 50°38' W 001°04'0 0.1
2017-Aug-30 08:58N 50°38' W 001°04'0 0.0
2017-Aug-30 08:28N 50°38' W 001°04'0 0.0
2017-Aug-30 07:58N 50°38' W 001°04'0 0.0
2017-Aug-30 07:28N 50°38' W 001°04'0 0.0
2017-Aug-30 06:58N 50°38' W 001°04'0 0.0
2017-Aug-30 06:28N 50°38' W 001°05'0 0.0
2017-Aug-30 05:58N 50°38' W 001°04'0 0.0
2017-Aug-30 05:28N 50°38' W 001°04'0 0.0
2017-Aug-30 04:58N 50°38' W 001°04'0 0.1
2017-Aug-30 04:28N 50°38' W 001°04'0 0.0
2017-Aug-30 03:58N 50°38' W 001°04'0 0.1
2017-Aug-30 03:28N 50°38' W 001°04'0 0.1
2017-Aug-30 02:58N 50°38' W 001°04'0 0.0
2017-Aug-30 02:28N 50°38' W 001°04'0 0.1
2017-Aug-30 01:55N 50°38' W 001°04'0 0.1
2017-Aug-30 01:28N 50°38' W 001°04'0 0.0
2017-Aug-30 00:58N 50°38' W 001°04'0 0.0
2017-Aug-30 00:28N 50°38' W 001°04'0 0.0
2017-Aug-29 23:58N 50°38' W 001°04'0 0.0
2017-Aug-29 23:28N 50°38' W 001°04'0 0.0
2017-Aug-29 22:58N 50°38' W 001°04'0 0.1
2017-Aug-29 22:28N 50°38' W 001°04'0 0.1
2017-Aug-29 21:58N 50°38' W 001°04'0 0.0
2017-Aug-29 21:28N 50°38' W 001°04'0 0.0
2017-Aug-29 20:58N 50°38' W 001°04'0 0.1
2017-Aug-29 20:28N 50°38' W 001°04'0 0.0
2017-Aug-29 19:58N 50°38' W 001°04'0 0.1
2017-Aug-29 19:28N 50°38' W 001°04'0 0.0
2017-Aug-29 18:58N 50°38' W 001°04'0 0.0
2017-Aug-29 18:28N 50°38' W 001°04'0 0.0
2017-Aug-29 17:58N 50°38' W 001°04'0 0.1
2017-Aug-29 17:28N 50°38' W 001°04'0 0.0
2017-Aug-29 16:58N 50°38' W 001°04'0 0.1
2017-Aug-29 16:28N 50°38' W 001°04'0 0.2
2017-Aug-29 15:58N 50°38' W 001°04'0 0.3
2017-Aug-29 15:28N 50°38' W 001°04'0 0.1
2017-Aug-29 14:58N 50°38' W 001°04'0 0.0
2017-Aug-29 14:28N 50°38' W 001°04'0 0.0
2017-Aug-29 13:58N 50°38' W 001°04'0 0.0
2017-Aug-29 13:28N 50°38' W 001°04'0 0.0
2017-Aug-29 12:52N 50°38' W 001°04'0 0.0
2017-Aug-29 12:28N 50°38' W 001°04'0 0.0
2017-Aug-29 11:58N 50°38' W 001°04'0 0.0
2017-Aug-29 11:28N 50°38' W 001°04'0 0.0
2017-Aug-29 10:58N 50°38' W 001°04'0 0.0
2017-Aug-29 10:28N 50°38' W 001°04'0 0.0
2017-Aug-29 09:58N 50°38' W 001°04'0 0.4
2017-Aug-29 09:30N 50°38' W 001°04'5 9.2
2017-Aug-29 09:00N 50°42' W 001°01'1019.8
2017-Aug-29 08:30N 50°46' W 001°15'612.7
2017-Aug-29 08:01N 50°51' W 001°21'4 6.6
2017-Aug-29 07:29N 50°54' W 001°25'0 0.0
2017-Aug-29 06:59N 50°54' W 001°25'0 0.0
2017-Aug-29 06:29N 50°54' W 001°25'0 0.0
2017-Aug-29 05:59N 50°54' W 001°25'0 0.0
2017-Aug-29 05:29N 50°54' W 001°25'0 0.0
2017-Aug-29 04:59N 50°54' W 001°25'0 0.0
2017-Aug-29 04:28N 50°54' W 001°25'0 0.0
2017-Aug-29 03:59N 50°54' W 001°25'0 0.0
2017-Aug-29 03:28N 50°54' W 001°25'0 0.0
2017-Aug-29 02:59N 50°54' W 001°25'0 0.0
2017-Aug-29 02:28N 50°54' W 001°25'0 0.0
2017-Aug-29 01:55N 50°54' W 001°25'0 0.0
2017-Aug-29 01:28N 50°54' W 001°25'0 0.0
2017-Aug-29 00:58N 50°54' W 001°25'0 0.0
2017-Aug-29 00:28N 50°54' W 001°25'0 0.0
2017-Aug-28 23:58N 50°54' W 001°25'0 0.0
2017-Aug-28 23:29N 50°54' W 001°25'0 0.0
2017-Aug-28 22:58N 50°54' W 001°25'0 0.0
2017-Aug-28 22:28N 50°54' W 001°25'0 0.0
2017-Aug-28 21:58N 50°54' W 001°25'0 0.0
2017-Aug-28 21:28N 50°54' W 001°25'0 0.0
2017-Aug-28 20:58N 50°54' W 001°25'0 0.0
2017-Aug-28 20:28N 50°54' W 001°25'0 0.0
2017-Aug-28 19:58N 50°54' W 001°25'0 0.0
2017-Aug-28 19:28N 50°54' W 001°25'0 0.0
2017-Aug-28 18:58N 50°54' W 001°25'0 0.0
2017-Aug-28 18:28N 50°54' W 001°25'0 0.0
2017-Aug-28 17:58N 50°54' W 001°25'0 0.0
2017-Aug-28 17:28N 50°54' W 001°25'0 0.0
2017-Aug-28 16:58N 50°54' W 001°25'0 0.0
2017-Aug-28 16:28N 50°54' W 001°25'0 0.0
2017-Aug-28 15:59N 50°54' W 001°25'0 0.0
2017-Aug-28 15:28N 50°54' W 001°25'0 0.0
2017-Aug-28 14:58N 50°54' W 001°25'0 0.0
2017-Aug-28 14:28N 50°54' W 001°25'0 0.0
2017-Aug-28 13:58N 50°54' W 001°25'0 0.0
2017-Aug-28 13:28N 50°54' W 001°25'0 0.0
2017-Aug-28 12:58N 50°54' W 001°25'0 0.0
2017-Aug-28 12:28N 50°54' W 001°25'0 0.0
2017-Aug-28 11:58N 50°54' W 001°25'0 0.0
2017-Aug-28 11:28N 50°54' W 001°25'0 0.0
2017-Aug-28 10:58N 50°54' W 001°25'0 0.0
2017-Aug-28 10:28N 50°54' W 001°25'0 0.0
2017-Aug-28 09:58N 50°54' W 001°25'0 0.0
2017-Aug-28 09:28N 50°54' W 001°25'0 0.0
2017-Aug-28 08:55N 50°54' W 001°25'0 0.0
2017-Aug-28 08:28N 50°54' W 001°25'0 0.0
2017-Aug-28 07:58N 50°54' W 001°25'0 0.0
2017-Aug-28 07:28N 50°54' W 001°25'0 0.0
2017-Aug-28 06:55N 50°54' W 001°25'0 0.0
2017-Aug-28 06:28N 50°54' W 001°25'0 0.0
2017-Aug-28 05:58N 50°54' W 001°25'0 0.0
2017-Aug-28 05:28N 50°54' W 001°25'0 0.0
2017-Aug-28 04:58N 50°54' W 001°25'0 0.0
2017-Aug-28 04:28N 50°54' W 001°25'0 0.0
2017-Aug-28 03:58N 50°54' W 001°25'0 0.0
2017-Aug-28 03:28N 50°54' W 001°25'0 0.0
2017-Aug-28 02:58N 50°54' W 001°25'0 0.0
2017-Aug-28 02:28N 50°54' W 001°25'0 0.0
2017-Aug-28 01:58N 50°54' W 001°25'0 0.0
2017-Aug-28 01:28N 50°54' W 001°25'0 0.0
2017-Aug-28 00:58N 50°54' W 001°25'0 0.0
2017-Aug-28 00:28N 50°54' W 001°25'0 0.0
2017-Aug-27 23:58N 50°54' W 001°25'0 0.0
2017-Aug-27 23:28N 50°54' W 001°25'0 0.0
2017-Aug-27 22:58N 50°54' W 001°25'0 0.0
2017-Aug-27 22:28N 50°54' W 001°25'0 0.0
2017-Aug-27 21:58N 50°54' W 001°25'0 0.0
2017-Aug-27 21:28N 50°54' W 001°25'0 0.0
2017-Aug-27 20:58N 50°54' W 001°25'0 0.0
2017-Aug-27 20:28N 50°54' W 001°25'0 0.0
2017-Aug-27 19:58N 50°54' W 001°25'0 0.0
2017-Aug-27 19:28N 50°54' W 001°25'0 0.0
2017-Aug-27 18:58N 50°54' W 001°25'0 0.0
2017-Aug-27 18:28N 50°54' W 001°25'0 0.0
2017-Aug-27 17:58N 50°54' W 001°25'0 0.0
2017-Aug-27 17:28N 50°54' W 001°25'0 0.0
2017-Aug-27 16:58N 50°54' W 001°25'0 0.0
2017-Aug-27 16:28N 50°54' W 001°25'0 0.0
2017-Aug-27 15:58N 50°54' W 001°25'  

Dump ship's entire track history